Time;durP1;ratioP1;P1;durP2;ratioP2;P2;SDS_P1;SDS_P2;PMS_P1;PMS_P2;Temp;Humidity;BMP_temperature;BMP_pressure;BME280_temperature;BME280_humidity;BME280_pressure;Samples;Min_cycle;Max_cycle;Signal;HPM_P1;HPM_P2
2022/05/26 00:01:07;;;;;;;1.10;0.80;;;;;;;15.67;57.88;100390.04;1437152;91;22531;-89
2022/05/26 00:03:38;;;;;;;0.90;0.90;;;;;;;15.70;57.89;100393.70;1437736;91;21539;-90
2022/05/26 00:06:07;;;;;;;3.33;0.80;;;;;;;15.70;57.85;100396.37;1436642;91;21473;-89
2022/05/26 00:08:36;;;;;;;1.67;1.00;;;;;;;15.66;57.06;100392.40;1429122;91;21493;-91
2022/05/26 00:11:08;;;;;;;2.87;1.30;;;;;;;15.65;57.36;100404.91;1435091;91;22505;-93
2022/05/26 00:13:36;;;;;;;1.37;0.90;;;;;;;15.64;57.67;100411.23;1441967;91;22470;-92
2022/05/26 00:16:03;;;;;;;3.00;0.90;;;;;;;15.57;57.10;100415.66;1440019;91;21597;-91
2022/05/26 00:18:29;;;;;;;3.13;0.93;;;;;;;15.58;57.27;100421.30;1434611;91;21450;-92
2022/05/26 00:20:55;;;;;;;1.07;0.80;;;;;;;15.55;57.32;100428.33;1444193;91;21596;-85
2022/05/26 00:23:21;;;;;;;1.33;0.90;;;;;;;15.54;57.24;100429.35;1419985;91;22486;-84
2022/05/26 00:25:47;;;;;;;2.47;1.20;;;;;;;15.52;57.32;100439.36;1437636;91;21613;-84
2022/05/26 00:28:13;;;;;;;1.60;1.33;;;;;;;15.51;57.43;100436.38;1429206;91;23442;-83
2022/05/26 00:30:40;;;;;;;1.17;0.87;;;;;;;15.52;57.52;100439.36;1421009;91;21502;-84
2022/05/26 00:33:07;;;;;;;2.43;1.10;;;;;;;15.52;57.75;100446.03;1426233;91;21488;-84
2022/05/26 00:35:36;;;;;;;3.17;1.27;;;;;;;15.45;57.90;100452.59;1425792;91;21487;-83
2022/05/26 00:38:09;;;;;;;1.27;1.10;;;;;;;15.41;58.04;100450.45;1432029;91;21547;-84
2022/05/26 00:40:36;;;;;;;2.37;1.10;;;;;;;15.35;58.64;100457.33;1424918;91;21984;-84
2022/05/26 00:43:04;;;;;;;1.17;1.07;;;;;;;15.39;58.28;100455.13;1427569;91;21524;-84
2022/05/26 00:45:36;;;;;;;1.77;1.23;;;;;;;15.34;58.76;100448.50;1407885;91;21576;-86
2022/05/26 00:48:08;;;;;;;1.20;0.90;;;;;;;15.36;58.52;100448.31;1421742;92;22055;-84
2022/05/26 00:50:40;;;;;;;2.40;1.03;;;;;;;15.35;58.72;100458.66;1424200;91;21680;-85
2022/05/26 00:53:27;;;;;;;3.40;1.37;;;;;;;15.37;58.90;100457.16;1422897;91;21670;-84
2022/05/26 00:56:05;;;;;;;2.40;1.20;;;;;;;15.31;59.22;100455.52;1431994;90;21752;-84
2022/05/26 00:58:36;;;;;;;4.63;1.00;;;;;;;15.29;59.58;100468.20;1429989;88;21501;-83
2022/05/26 01:01:03;;;;;;;1.93;1.10;;;;;;;15.21;59.63;100474.91;1481580;88;21506;-83
2022/05/26 01:03:35;;;;;;;1.87;1.10;;;;;;;15.19;60.00;100463.61;1431432;91;22478;-83
2022/05/26 01:06:16;;;;;;;2.97;1.30;;;;;;;15.19;60.05;100464.95;1472660;88;21619;-83
2022/05/26 01:09:00;;;;;;;;;;;;;;;15.17;60.09;100472.80;1488745;88;22527;-82
2022/05/26 01:11:30;;;;;;;7.10;2.30;;;;;;;15.11;60.36;100487.66;1488254;87;20319;-82
2022/05/26 01:14:07;;;;;;;1.35;1.22;;;;;;;15.11;60.02;100482.32;1478087;88;22632;-82
2022/05/26 01:17:26;;;;;;;4.90;1.20;;;;;;;15.14;59.80;100472.64;1474393;88;23669;-81
2022/05/26 01:20:36;;;;;;;4.17;1.60;;;;;;;15.08;60.22;100479.50;1478782;88;21968;-82
2022/05/26 01:23:43;;;;;;;1.25;1.07;;;;;;;15.09;60.06;100486.98;1473928;87;21612;-81
2022/05/26 01:26:39;;;;;;;2.40;1.73;;;;;;;15.05;60.34;100495.84;1473194;88;21635;-82
2022/05/26 01:29:45;;;;;;;4.70;1.83;;;;;;;15.07;59.90;100488.48;1477397;88;21634;-82
2022/05/26 01:32:37;;;;;;;1.23;1.13;;;;;;;15.01;60.67;100483.86;1481656;88;21552;-81
2022/05/26 01:35:34;;;;;;;2.17;1.20;;;;;;;15.02;61.03;100484.71;1476341;88;21662;-82
2022/05/26 01:38:38;;;;;;;4.07;1.13;;;;;;;15.01;60.34;100479.03;1471289;88;21514;-83
2022/05/26 01:41:09;;;;;;;2.70;1.13;;;;;;;14.97;60.52;100479.07;1410006;92;21655;-81
2022/05/26 01:43:52;;;;;;;5.47;1.33;;;;;;;14.94;60.97;100482.09;1456576;88;21515;-82
2022/05/26 01:46:41;;;;;;;1.93;1.20;;;;;;;14.93;60.77;100484.41;1477027;88;22313;-83
2022/05/26 01:49:37;;;;;;;1.50;1.13;;;;;;;14.86;61.28;100486.44;1477906;88;22727;-84
2022/05/26 01:52:23;;;;;;;3.53;1.87;;;;;;;14.80;61.48;100488.47;1475132;88;21648;-84
2022/05/26 01:54:56;;;;;;;2.97;1.30;;;;;;;14.79;61.68;100492.14;1477599;88;21654;-83
2022/05/26 01:57:30;;;;;;;1.93;1.43;;;;;;;14.76;61.77;100487.17;1481381;88;23600;-84
2022/05/26 02:00:08;;;;;;;5.23;1.37;;;;;;;14.70;61.71;100489.16;1457797;88;21517;-84
2022/05/26 02:02:42;;;;;;;1.13;1.03;;;;;;;14.68;61.55;100486.38;1454793;89;21664;-85
2022/05/26 02:05:13;;;;;;;3.30;1.57;;;;;;;14.61;61.52;100488.37;1457924;89;21429;-84
2022/05/26 02:07:44;;;;;;;1.77;1.63;;;;;;;14.61;61.47;100490.20;1455850;88;21546;-84
2022/05/26 02:10:16;;;;;;;4.83;1.63;;;;;;;14.54;61.84;100490.58;1459586;89;21621;-85
2022/05/26 02:12:59;;;;;;;2.23;1.40;;;;;;;14.52;61.67;100487.25;1449351;89;21465;-85
2022/05/26 02:15:39;;;;;;;3.37;1.50;;;;;;;14.51;61.51;100488.23;1456427;88;22498;-85
2022/05/26 02:18:15;;;;;;;2.13;1.50;;;;;;;14.43;61.76;100491.73;1472937;88;22477;-85
2022/05/26 02:20:55;;;;;;;2.20;1.40;;;;;;;14.38;62.04;100493.57;1479755;88;21612;-85
2022/05/26 02:23:33;;;;;;;2.37;1.27;;;;;;;14.31;62.14;100486.45;1462627;88;21383;-85
2022/05/26 02:26:02;;;;;;;2.13;1.47;;;;;;;14.27;61.75;100487.78;1461788;88;21471;-82
2022/05/26 02:28:29;;;;;;;4.10;1.50;;;;;;;14.25;62.43;100493.29;1477477;88;22071;-84
2022/05/26 02:30:58;;;;;;;3.47;1.50;;;;;;;14.25;62.11;100499.94;1472316;88;21486;-84
2022/05/26 02:33:24;;;;;;;2.20;1.30;;;;;;;14.27;61.97;100507.74;1468439;88;21405;-84
2022/05/26 02:35:52;;;;;;;1.40;1.30;;;;;;;14.20;62.38;100508.93;1474664;88;21434;-84
2022/05/26 02:38:26;;;;;;;4.43;1.67;;;;;;;14.19;62.26;100516.09;1475992;88;21479;-84
2022/05/26 02:40:52;;;;;;;2.10;1.20;;;;;;;14.19;62.27;100519.26;1474424;88;21479;-85
2022/05/26 02:43:26;;;;;;;2.70;1.30;;;;;;;14.16;62.22;100519.59;1473778;88;21457;-83
2022/05/26 02:46:42;;;;;;;3.33;2.27;;;;;;;14.11;62.34;100520.59;1476295;88;21575;-84
2022/05/26 02:49:28;;;;;;;1.57;1.37;;;;;;;14.09;62.15;100526.07;1458395;88;21444;-85
2022/05/26 02:52:16;;;;;;;10.73;2.50;;;;;;;14.06;62.73;100529.58;1454664;89;22412;-84
2022/05/26 02:55:05;;;;;;;3.27;1.60;;;;;;;13.97;62.98;100536.23;1462612;88;21517;-84
2022/05/26 02:57:52;;;;;;;2.77;1.70;;;;;;;13.99;62.76;100542.22;1470037;88;21478;-84
2022/05/26 03:00:26;;;;;;;1.50;1.33;;;;;;;13.98;62.65;100545.89;1436190;90;21672;-84
2022/05/26 03:03:34;;;;;;;4.70;1.30;;;;;;;13.95;63.75;100549.36;1442021;90;21525;-85
2022/05/26 03:06:18;;;;;;;2.10;1.80;;;;;;;13.99;62.75;100552.05;1453398;90;21503;-85
2022/05/26 03:08:46;;;;;;;1.80;1.23;;;;;;;13.99;63.75;100555.53;1448284;90;21525;-84
2022/05/26 03:11:22;;;;;;;4.00;1.40;;;;;;;14.05;63.83;100558.53;1437259;90;21592;-84
2022/05/26 03:13:50;;;;;;;2.93;1.30;;;;;;;14.10;62.95;100559.69;1443389;90;21473;-84
2022/05/26 03:16:17;;;;;;;4.80;1.43;;;;;;;14.13;63.66;100559.36;1439257;90;21495;-85
2022/05/26 03:18:45;;;;;;;1.50;1.20;;;;;;;14.18;62.89;100569.01;1440774;90;21546;-84
2022/05/26 03:21:12;;;;;;;2.17;1.50;;;;;;;14.22;62.78;100563.66;1439730;90;22492;-86
2022/05/26 03:23:39;;;;;;;3.53;1.57;;;;;;;14.29;62.66;100573.64;1445451;90;21487;-86
2022/05/26 03:26:07;;;;;;;1.63;1.53;;;;;;;14.33;62.30;100570.48;1465171;89;21508;-84
2022/05/26 03:28:33;;;;;;;4.63;1.60;;;;;;;14.32;62.62;100580.78;1463824;89;21455;-84
2022/05/26 03:30:59;;;;;;;1.80;1.30;;;;;;;14.35;62.89;100588.43;1463722;89;22342;-82
2022/05/26 03:40:45;;;;;;;4.70;1.43;;;;;;;14.37;62.48;100586.44;1465654;89;21604;-84
2022/05/26 03:41:26;;;;;;;3.27;1.60;;;;;;;14.43;61.94;100588.42;1464899;89;21457;-84
2022/05/26 03:43:59;;;;;;;2.00;1.60;;;;;;;14.44;62.01;100595.44;1447860;89;21605;-84
2022/05/26 03:46:26;;;;;;;2.70;1.47;;;;;;;14.45;61.88;100607.73;1456381;89;21585;-84
2022/05/26 03:48:53;;;;;;;2.10;1.30;;;;;;;14.42;61.48;100610.73;1460402;89;21625;-83
2022/05/26 03:51:19;;;;;;;4.13;1.23;;;;;;;14.31;61.64;100612.91;1459414;89;21457;-84
2022/05/26 03:53:45;;;;;;;3.10;1.37;;;;;;;14.29;61.88;100609.08;1457809;89;21471;-83
2022/05/26 03:56:11;;;;;;;3.87;1.40;;;;;;;14.29;62.07;100616.23;1460919;89;22410;-83
2022/05/26 03:58:37;;;;;;;1.87;1.23;;;;;;;14.28;61.85;100621.23;1464693;89;21478;-84
2022/05/26 04:01:07;;;;;;;3.83;1.90;;;;;;;14.29;62.08;100627.70;1452582;89;21583;-83
2022/05/26 04:03:34;;;;;;;2.37;1.33;;;;;;;14.31;62.23;100633.70;1449437;89;21493;-83
2022/05/26 04:06:00;;;;;;;2.87;1.50;;;;;;;14.31;62.38;100635.55;1424022;91;21606;-83
2022/05/26 04:08:26;;;;;;;4.80;1.50;;;;;;;14.34;61.96;100637.37;1430595;91;22510;-83
2022/05/26 04:10:53;;;;;;;4.23;1.87;;;;;;;14.39;62.00;100640.37;1426772;91;21489;-83
2022/05/26 04:13:19;;;;;;;3.47;1.60;;;;;;;14.42;61.80;100640.03;1432455;91;21473;-83
2022/05/26 04:15:45;;;;;;;4.03;2.50;;;;;;;14.41;61.60;100647.70;1431784;91;21399;-84
2022/05/26 04:18:11;;;;;;;2.07;1.50;;;;;;;14.37;61.87;100657.00;1409760;92;21502;-84
2022/05/26 04:20:37;;;;;;;3.23;1.40;;;;;;;14.41;61.91;100671.66;1404628;93;21537;-85
2022/05/26 04:23:03;;;;;;;3.10;1.50;;;;;;;14.45;61.48;100667.66;1407802;93;21502;-87
2022/05/26 04:25:29;;;;;;;6.20;1.50;;;;;;;14.53;62.09;100656.20;1407663;92;21531;-86
2022/05/26 04:27:56;;;;;;;1.70;1.50;;;;;;;14.59;62.18;100662.70;1409641;92;21605;-87
2022/05/26 04:30:24;;;;;;;4.40;1.47;;;;;;;14.65;61.45;100668.17;1418834;92;22327;-86
2022/05/26 04:32:51;;;;;;;2.10;1.60;;;;;;;14.71;61.27;100674.66;1420052;92;21635;-85
2022/05/26 04:35:19;;;;;;;2.37;1.27;;;;;;;14.75;61.04;100678.64;1397975;92;21679;-87
2022/05/26 04:37:45;;;;;;;2.13;1.07;;;;;;;14.82;61.21;100676.98;1416152;92;21469;-86
2022/05/26 04:40:12;;;;;;;2.47;1.20;;;;;;;14.85;60.29;100679.30;1409345;92;21660;-85
2022/05/26 04:42:39;;;;;;;4.60;1.33;;;;;;;14.87;59.76;100679.98;1415787;92;21464;-85
2022/05/26 04:45:10;;;;;;;28.50;4.17;;;;;;;14.92;59.68;100682.11;1418109;91;21520;-86
2022/05/26 04:47:37;;;;;;;6.60;1.57;;;;;;;15.05;60.34;100683.77;1419805;92;21551;-85
2022/05/26 04:50:04;;;;;;;2.03;1.30;;;;;;;15.11;59.96;100684.41;1418003;92;22404;-86
2022/05/26 04:52:30;;;;;;;3.63;1.10;;;;;;;15.18;59.27;100685.05;1412251;92;21737;-86
2022/05/26 04:54:56;;;;;;;6.53;1.60;;;;;;;15.30;59.55;100688.49;1416426;92;21478;-86
2022/05/26 04:57:24;;;;;;;3.43;1.70;;;;;;;15.40;59.82;100692.31;1411957;92;21721;-85
2022/05/26 04:59:51;;;;;;;7.63;2.00;;;;;;;15.47;58.67;100699.11;1420173;91;21679;-86
2022/05/26 05:02:22;;;;;;;6.17;1.77;;;;;;;15.54;58.66;100702.77;1434328;91;23157;-85
2022/05/26 05:04:48;;;;;;;9.25;1.50;;;;;;;15.72;59.09;100703.38;1417719;91;21591;-83
2022/05/26 05:07:17;;;;;;;3.67;1.60;;;;;;;15.72;59.09;100703.38;1430866;91;21568;-88
2022/05/26 05:09:46;;;;;;;7.60;1.77;;;;;;;15.74;57.61;100698.70;1430111;91;23437;-88
2022/05/26 05:12:16;;;;;;;1.67;1.03;;;;;;;15.79;57.12;100703.49;1410856;91;22323;-87
2022/05/26 05:14:44;;;;;;;;;;;;;;;15.83;56.58;100705.33;1433690;91;21591;-86
2022/05/26 05:17:12;;;;;;;6.70;1.77;;;;;;;15.94;57.02;100708.91;1434544;91;20251;-86
2022/05/26 05:19:39;;;;;;;1.83;1.37;;;;;;;16.03;57.15;100710.55;1433498;91;22106;-86
2022/05/26 05:22:29;;;;;;;7.30;1.53;;;;;;;16.15;57.25;100710.97;1434091;90;21501;-85
2022/05/26 05:25:03;;;;;;;2.45;1.27;;;;;;;16.24;56.58;100710.73;1436149;91;21539;-87
2022/05/26 05:27:44;;;;;;;1.73;1.40;;;;;;;16.36;56.34;100715.66;1427668;90;21443;-86
2022/05/26 05:30:24;;;;;;;2.87;1.27;;;;;;;16.47;56.46;100724.59;1424284;91;21619;-86
2022/05/26 05:32:59;;;;;;;4.92;1.22;;;;;;;16.58;55.51;100723.34;1427704;91;22165;-86
2022/05/26 05:35:31;;;;;;;2.93;1.33;;;;;;;16.68;55.78;100722.58;1432024;90;21472;-87
2022/05/26 05:37:57;;;;;;;3.13;2.43;;;;;;;16.79;54.99;100721.35;1422218;91;22337;-86
2022/05/26 05:40:24;;;;;;;2.53;1.47;;;;;;;16.85;53.51;100727.30;1425351;91;21405;-87
2022/05/26 05:42:50;;;;;;;4.30;1.20;;;;;;;16.94;53.16;100728.06;1425504;91;21472;-88
2022/05/26 05:45:17;;;;;;;2.50;1.60;;;;;;;17.02;53.55;100735.49;1438557;90;22376;-86
2022/05/26 05:47:43;;;;;;;4.03;1.07;;;;;;;17.11;53.25;100738.41;1436953;91;22789;-88
2022/05/26 05:50:10;;;;;;;2.80;1.20;;;;;;;17.16;52.24;100738.37;1434771;91;21466;-86
2022/05/26 05:52:36;;;;;;;17.97;2.13;;;;;;;17.26;51.72;100741.60;1433616;91;21689;-87
2022/05/26 05:55:04;;;;;;;2.00;1.27;;;;;;;17.30;51.55;100747.75;1439948;90;21633;-87
2022/05/26 05:57:31;;;;;;;2.57;1.20;;;;;;;17.42;51.53;100741.43;1435602;90;21466;-89
2022/05/26 05:59:57;;;;;;;3.63;1.43;;;;;;;17.48;50.65;100747.38;1429211;90;22521;-87
2022/05/26 06:02:24;;;;;;;3.30;1.37;;;;;;;17.53;50.25;100754.34;1479277;88;22573;-86
2022/05/26 06:04:50;;;;;;;1.53;1.20;;;;;;;17.58;49.61;100749.28;1476420;88;22640;-88
2022/05/26 06:07:21;;;;;;;4.03;1.97;;;;;;;17.65;49.79;100757.90;1458481;88;21619;-89
2022/05/26 06:09:48;;;;;;;5.50;1.57;;;;;;;17.72;50.30;100762.33;1477970;88;21509;-86
2022/05/26 06:12:16;;;;;;;1.73;1.10;;;;;;;17.85;48.84;100760.34;1480303;88;21538;-88
2022/05/26 06:14:42;;;;;;;5.37;1.40;;;;;;;18.01;50.06;100761.48;1474943;88;21502;-88
2022/05/26 06:17:10;;;;;;;5.07;1.23;;;;;;;18.17;49.13;100768.45;1456527;88;22486;-87
2022/05/26 06:19:38;;;;;;;3.60;1.50;;;;;;;18.22;47.11;100774.59;1478699;88;21647;-88
2022/05/26 06:22:17;;;;;;;2.57;1.27;;;;;;;18.32;48.16;100777.77;1398633;88;21448;-87
2022/05/26 06:24:44;;;;;;;2.13;1.47;;;;;;;18.43;47.10;100771.91;1516049;88;21332;-86
2022/05/26 06:29:59;;;;;;;12.20;3.37;;;;;;;18.66;45.72;100772.24;1563374;88;21503;-87
2022/05/26 06:37:57;;;;;;;1.57;1.10;;;;;;;18.69;43.29;100781.23;1560811;88;21310;-88
2022/05/26 06:40:23;;;;;;;1.10;1.00;;;;;;;18.80;44.16;100780.75;1472075;88;21398;-86
2022/05/26 06:42:49;;;;;;;2.13;1.20;;;;;;;18.93;43.90;100784.91;1437376;88;21434;-86
2022/05/26 06:45:20;;;;;;;6.83;1.23;;;;;;;19.07;44.65;100787.67;1467930;88;21969;-88
2022/05/26 06:47:46;;;;;;;2.03;1.27;;;;;;;19.16;43.94;100781.98;1500950;87;21484;-87
2022/05/26 06:50:13;;;;;;;10.13;1.62;;;;;;;19.33;44.55;100785.20;1477682;87;22379;-87
2022/05/26 06:52:39;;;;;;;6.87;2.10;;;;;;;19.52;44.77;100785.52;1475288;88;21427;-88
2022/05/26 06:55:08;;;;;;;1.98;1.32;;;;;;;19.63;44.71;100782.80;1472900;88;21582;-88
2022/05/26 06:57:36;;;;;;;7.22;1.30;;;;;;;19.70;43.91;100776.44;1473437;88;22521;-88
2022/05/26 07:00:06;;;;;;;4.85;1.65;;;;;;;19.70;43.23;100787.70;1479255;88;21670;-88
2022/05/26 07:02:32;;;;;;;1.40;1.30;;;;;;;19.81;43.77;100787.14;1476911;88;21640;-89
2022/05/26 07:04:58;;;;;;;2.52;1.55;;;;;;;19.87;42.28;100788.20;1472883;88;21478;-88
2022/05/26 07:07:25;;;;;;;1.57;1.32;;;;;;;19.90;42.48;100781.91;1468959;88;21932;-89
2022/05/26 07:09:56;;;;;;;1.57;1.15;;;;;;;19.91;42.05;100793.48;1477808;88;21630;-90
2022/05/26 07:12:24;;;;;;;11.05;1.95;;;;;;;20.07;43.24;100793.14;1475577;88;22335;-89
2022/05/26 07:14:51;;;;;;;2.95;1.30;;;;;;;20.12;42.56;100786.66;1473851;88;22396;-90
2022/05/26 07:17:18;;;;;;;2.45;1.00;;;;;;;20.22;41.90;100793.80;1420405;88;22313;-88
2022/05/26 07:19:44;;;;;;;1.05;0.98;;;;;;;20.08;39.78;100800.68;1407217;88;21553;-90
2022/05/26 07:22:10;;;;;;;3.83;1.67;;;;;;;20.17;41.52;100791.41;1473841;88;21611;-90
2022/05/26 07:24:38;;;;;;;1.95;1.40;;;;;;;20.25;40.99;100806.01;1476654;88;22359;-90
2022/05/26 07:27:06;;;;;;;1.70;1.40;;;;;;;20.44;41.24;100797.70;1475865;88;22734;-89
2022/05/26 07:29:32;;;;;;;7.05;1.30;;;;;;;20.50;40.40;100804.95;1475159;88;21579;-88
2022/05/26 07:32:01;;;;;;;1.27;1.07;;;;;;;20.60;40.26;100797.36;1477044;88;21590;-89
2022/05/26 07:34:27;;;;;;;1.40;1.22;;;;;;;20.72;41.04;100807.81;1474871;88;21670;-89
2022/05/26 07:42:32;;;;;;;2.22;1.50;;;;;;;21.18;40.80;100808.87;1465551;88;21494;-92
2022/05/26 07:45:03;;;;;;;2.10;1.15;;;;;;;21.19;37.18;100803.26;1484313;88;22329;-94
2022/05/26 07:47:29;;;;;;;2.10;1.55;;;;;;;21.27;38.92;100801.41;1484119;88;22040;-91
2022/05/26 07:49:56;;;;;;;3.72;1.10;;;;;;;21.37;39.48;100801.82;1477610;88;21486;-89
2022/05/26 07:52:23;;;;;;;3.05;1.42;;;;;;;21.35;36.32;100799.84;1481479;88;22979;-89
2022/05/26 07:54:49;;;;;;;1.75;1.22;;;;;;;21.29;36.01;100807.39;1490101;88;22006;-89
2022/05/26 07:57:26;;;;;;;1.32;1.10;;;;;;;21.42;37.57;100803.37;1486340;88;21494;-90
2022/05/26 07:59:55;;;;;;;3.65;1.20;;;;;;;21.62;38.13;100809.54;1489109;88;21508;-90
2022/05/26 08:02:21;;;;;;;3.20;1.45;;;;;;;21.77;37.40;100805.25;1478370;87;21459;-90
2022/05/26 08:04:49;;;;;;;2.90;1.80;;;;;;;21.79;36.77;100800.48;1490721;88;21482;-88
2022/05/26 08:07:15;;;;;;;2.50;1.17;;;;;;;21.69;35.51;100806.00;1483062;88;21634;-91
2022/05/26 08:09:41;;;;;;;1.07;0.88;;;;;;;21.60;34.81;100805.40;1481871;88;21570;-91
2022/05/26 08:12:13;;;;;;;1.25;1.15;;;;;;;21.79;36.70;100801.01;1485223;88;22458;-90
2022/05/26 08:14:42;;;;;;;4.33;1.40;;;;;;;21.97;36.26;100809.22;1488083;87;21452;-89
2022/05/26 08:17:10;;;;;;;8.98;1.50;;;;;;;22.24;36.46;100815.86;1482413;87;21524;-91
2022/05/26 08:19:37;;;;;;;1.72;1.30;;;;;;;22.24;36.46;100815.86;1483883;88;21407;-90
2022/05/26 08:22:03;;;;;;;10.80;1.15;;;;;;;22.33;36.60;100806.51;1455194;88;21510;-84
2022/05/26 08:24:29;;;;;;;8.05;1.27;;;;;;;22.41;36.49;100808.95;1475700;88;21601;-85
2022/05/26 08:26:56;;;;;;;1.70;1.20;;;;;;;22.50;35.91;100807.65;1458797;89;22574;-85
2022/05/26 08:29:22;;;;;;;1.20;1.10;;;;;;;22.61;35.86;100813.37;1458554;89;21502;-84
2022/05/26 08:31:49;;;;;;;2.92;0.78;;;;;;;22.67;35.78;100814.70;1459882;89;21443;-84
2022/05/26 08:34:16;;;;;;;21.68;2.00;;;;;;;22.88;36.50;100810.80;1453891;89;22523;-84
2022/05/26 08:36:43;;;;;;;1.62;1.12;;;;;;;22.97;35.11;100809.52;1458857;89;21487;-85
2022/05/26 08:39:09;;;;;;;3.52;1.45;;;;;;;23.09;34.03;100806.10;1434737;89;21452;-85
2022/05/26 08:41:44;;;;;;;6.17;0.90;;;;;;;23.10;34.84;100800.50;1453482;89;22501;-85
2022/05/26 08:44:37;;;;;;;19.90;2.17;;;;;;;22.97;33.17;100808.16;1456761;89;21466;-85
2022/05/26 08:47:10;;;;;;;2.25;0.80;;;;;;;23.17;34.45;100813.92;1455807;89;21673;-85
2022/05/26 08:49:44;;;;;;;73.62;5.33;;;;;;;23.27;34.15;100813.41;1454411;89;21436;-87
2022/05/26 08:52:19;;;;;;;8.18;1.32;;;;;;;23.30;33.48;100805.69;1457684;89;21577;-85
2022/05/26 08:55:10;;;;;;;5.35;0.80;;;;;;;23.28;34.26;100814.55;1452839;89;22425;-85
2022/05/26 08:58:04;;;;;;;5.22;1.20;;;;;;;23.36;33.78;100811.58;1448286;89;21577;-84
2022/05/26 09:00:31;;;;;;;8.83;1.32;;;;;;;23.46;33.96;100810.23;1447055;89;21489;-85
2022/05/26 09:03:00;;;;;;;3.50;0.70;;;;;;;23.59;34.16;100809.58;1446891;89;22376;-85
2022/05/26 09:05:34;;;;;;;62.30;3.47;;;;;;;23.67;33.94;100807.08;1443272;89;22368;-86
2022/05/26 09:13:48;;;;;;;6.60;1.50;;;;;;;23.92;33.45;100788.12;1446315;89;22428;-84
2022/05/26 09:16:15;;;;;;;4.33;1.12;;;;;;;24.03;34.04;100781.95;1452467;89;21548;-87
2022/05/26 09:18:41;;;;;;;3.77;1.20;;;;;;;24.10;32.72;100790.78;1438714;90;22377;-86
2022/05/26 09:21:22;;;;;;;6.40;1.05;;;;;;;24.19;33.88;100790.47;1411132;90;21466;-86
2022/05/26 09:23:49;;;;;;;6.17;1.60;;;;;;;24.25;33.12;100793.07;1447991;89;21495;-86
2022/05/26 09:26:19;;;;;;;1.22;1.07;;;;;;;24.23;32.96;100792.50;1441748;89;21482;-86
2022/05/26 09:28:54;;;;;;;2.27;1.35;;;;;;;24.30;33.74;100794.56;1448634;90;21488;-87
2022/05/26 09:31:31;;;;;;;6.70;1.10;;;;;;;24.50;34.11;100792.14;1439648;90;21629;-87
2022/05/26 09:34:06;;;;;;;30.90;2.87;;;;;;;24.50;32.46;100790.26;1450237;90;21467;-87
2022/05/26 09:36:52;;;;;;;8.08;1.22;;;;;;;24.53;32.66;100788.98;1451458;89;21488;-87
2022/05/26 09:39:26;;;;;;;8.50;1.52;;;;;;;24.62;32.59;100788.94;1446110;90;22672;-87
2022/05/26 09:41:55;;;;;;;6.42;1.00;;;;;;;24.66;31.69;100786.61;1446105;89;22101;-87
2022/05/26 09:45:11;;;;;;;3.52;0.88;;;;;;;24.67;32.21;100787.72;1448527;90;23353;-87
2022/05/26 09:47:53;;;;;;;44.58;3.25;;;;;;;24.83;31.98;100782.17;1447941;90;21481;-88
2022/05/26 09:50:39;;;;;;;1.42;0.70;;;;;;;24.86;30.70;100788.97;1419799;91;21601;-88
2022/05/26 09:53:10;;;;;;;5.50;1.52;;;;;;;24.83;30.67;100783.52;1404810;93;21502;-88
2022/05/26 09:55:48;;;;;;;9.23;1.37;;;;;;;24.90;31.07;100781.52;1409142;92;21446;-87
2022/05/26 09:58:34;;;;;;;6.40;1.80;;;;;;;25.02;30.77;100784.23;1411791;93;21487;-88
2022/05/26 10:01:27;;;;;;;3.80;1.02;;;;;;;25.07;31.58;100782.19;1419490;92;21623;-87
2022/05/26 10:04:32;;;;;;;3.95;1.27;;;;;;;25.18;31.26;100773.27;1401353;92;21523;-87
2022/05/26 10:07:04;;;;;;;2.27;0.85;;;;;;;25.33;30.42;100778.20;1410121;92;21500;-88
2022/05/26 10:10:16;;;;;;;4.28;1.17;;;;;;;25.32;29.68;100777.39;1410542;93;21414;-87
2022/05/26 10:13:23;;;;;;;7.15;1.52;;;;;;;25.31;29.73;100778.97;1388494;92;21510;-88
2022/05/26 10:15:58;;;;;;;1.55;0.78;;;;;;;25.40;29.77;100774.83;1405651;92;21612;-86
2022/05/26 10:18:50;;;;;;;3.92;1.15;;;;;;;25.50;29.86;100768.83;1374678;93;21651;-87
2022/05/26 10:22:08;;;;;;;0.90;0.90;;;;;;;25.70;29.71;100773.86;1408898;92;21473;-88
2022/05/26 10:24:51;;;;;;;9.53;1.37;;;;;;;25.87;29.54;100769.36;1404173;92;21509;-87
2022/05/26 10:27:52;;;;;;;1.30;1.07;;;;;;;25.95;29.32;100774.92;1407694;92;22367;-88
2022/05/26 10:30:29;;;;;;;2.30;1.37;;;;;;;26.04;29.03;100769.42;1413903;92;21538;-88
2022/05/26 10:33:18;;;;;;;10.50;1.77;;;;;;;26.23;29.18;100755.11;1404827;92;21694;-89
2022/05/26 10:36:22;;;;;;;3.85;1.40;;;;;;;26.15;28.20;100769.88;1404268;92;21650;-89
2022/05/26 10:39:23;;;;;;;8.70;1.00;;;;;;;26.11;28.69;100762.77;1403348;93;21635;-88
2022/05/26 10:42:32;;;;;;;2.58;1.57;;;;;;;26.04;28.87;100762.11;1393312;93;21487;-87
2022/05/26 10:45:13;;;;;;;27.00;2.62;;;;;;;26.13;28.80;100767.15;1410227;93;21576;-88
2022/05/26 10:47:47;;;;;;;6.08;2.00;;;;;;;26.07;28.89;100757.55;1402024;93;21613;-89
2022/05/26 10:50:25;;;;;;;2.72;1.90;;;;;;;25.91;29.03;100756.95;1405155;92;22841;-91
2022/05/26 10:52:59;;;;;;;4.75;1.10;;;;;;;25.93;29.82;100754.84;1402671;92;21473;-88
2022/05/26 10:55:44;;;;;;;6.15;1.80;;;;;;;26.01;30.11;100753.10;1404720;92;21487;-87
2022/05/26 10:58:18;;;;;;;17.55;1.50;;;;;;;26.19;29.77;100759.39;1397054;93;22538;-90
2022/05/26 11:00:48;;;;;;;11.48;1.98;;;;;;;26.00;29.62;100760.92;1401143;93;21666;-90
2022/05/26 11:03:37;;;;;;;4.08;1.22;;;;;;;25.98;30.27;100742.74;1407702;92;21615;-89
2022/05/26 11:06:17;;;;;;;5.58;1.40;;;;;;;26.11;30.44;100745.14;1410384;92;22551;-89
2022/05/26 11:08:54;;;;;;;6.40;1.35;;;;;;;26.20;29.79;100746.11;1432563;91;22585;-89
2022/05/26 11:11:48;;;;;;;14.65;1.82;;;;;;;26.43;30.09;100741.09;1406633;92;22359;-88
2022/05/26 11:17:55;;;;;;;2.15;1.27;;;;;;;26.46;30.23;100731.92;1367982;95;23539;-89
2022/05/26 11:20:34;;;;;;;3.92;1.60;;;;;;;26.28;30.34;100717.23;1405210;91;21642;-88
2022/05/26 11:23:06;;;;;;;4.42;1.20;;;;;;;25.93;31.03;100718.23;1425007;91;23015;-88
2022/05/26 11:25:59;;;;;;;5.95;1.05;;;;;;;26.15;30.22;100722.95;1427918;92;21524;-89
2022/05/26 11:28:39;;;;;;;7.62;1.10;;;;;;;26.14;29.10;100723.49;1416416;91;21436;-86
2022/05/26 11:36:57;;;;;;;2.92;1.20;;;;;;;26.35;29.70;100716.53;1428334;91;21490;-89
2022/05/26 11:39:39;;;;;;;6.92;1.22;;;;;;;26.52;29.44;100722.81;1416609;92;21494;-89
2022/05/26 11:42:11;;;;;;;4.40;1.57;;;;;;;26.55;28.67;100706.04;1443256;89;21472;-90
2022/05/26 11:44:44;;;;;;;5.40;1.15;;;;;;;26.48;29.56;100717.58;1488343;88;21472;-89
2022/05/26 11:47:29;;;;;;;5.42;1.32;;;;;;;26.58;29.57;100702.55;1474380;88;21443;-90
2022/05/26 11:50:01;;;;;;;5.72;1.17;;;;;;;26.71;29.69;100698.16;1473219;88;21554;-89
2022/05/26 11:52:38;;;;;;;4.28;1.20;;;;;;;26.81;28.18;100703.73;1480737;88;21623;-89
2022/05/26 11:55:19;;;;;;;8.20;1.62;;;;;;;26.76;28.30;100706.39;1490166;88;21480;-89
2022/05/26 11:57:53;;;;;;;10.90;1.72;;;;;;;26.81;28.48;100715.13;1484508;88;21539;-89
2022/05/26 12:00:25;;;;;;;4.72;1.00;;;;;;;27.03;28.95;100703.78;1482136;88;22851;-88
2022/05/26 12:02:55;;;;;;;5.17;1.17;;;;;;;27.28;28.60;100692.48;1477249;87;21631;-89
2022/05/26 12:05:39;;;;;;;5.30;1.37;;;;;;;27.52;28.39;100687.60;1449899;88;21524;-89
2022/05/26 12:08:25;;;;;;;2.80;1.15;;;;;;;27.67;27.43;100691.03;1471283;88;21488;-89
2022/05/26 12:10:56;;;;;;;12.58;1.85;;;;;;;27.25;26.52;100686.20;1482229;88;21466;-90
2022/05/26 12:13:27;;;;;;;20.17;2.12;;;;;;;26.81;27.82;100675.22;1478844;88;21723;-88
2022/05/26 12:16:19;;;;;;;15.83;1.82;;;;;;;26.53;27.79;100675.63;1479564;88;21458;-89
2022/05/26 12:19:02;;;;;;;10.78;1.30;;;;;;;26.32;28.22;100674.97;1474110;88;21576;-89
2022/05/26 12:21:39;;;;;;;20.17;1.60;;;;;;;26.32;28.42;100660.05;1477788;88;21517;-91
2022/05/26 12:24:36;;;;;;;20.90;1.65;;;;;;;26.04;27.12;100675.33;1478696;88;21665;-88
2022/05/26 12:27:03;;;;;;;14.65;1.27;;;;;;;25.85;27.23;100667.10;1472233;88;21484;-88
2022/05/26 12:29:50;;;;;;;9.15;1.57;;;;;;;26.01;28.45;100659.55;1474719;88;21450;-90
2022/05/26 12:32:35;;;;;;;3.27;1.25;;;;;;;26.37;27.79;100658.78;1471664;88;22329;-92